Time;durP1;ratioP1;P1;durP2;ratioP2;P2;SDS_P1;SDS_P2;PMS_P1;PMS_P2;Temp;Humidity;BMP_temperature;BMP_pressure;BME280_temperature;BME280_humidity;BME280_pressure;Samples;Min_cycle;Max_cycle;Signal;HPM_P1;HPM_P2
2022/07/29 00:01:32;;;;;;;939.95;854.47;;;21.90;87.80;;;;;;5053372;28;20222;-87
2022/07/29 00:03:58;;;;;;;939.80;854.35;;;21.80;87.80;;;;;;5042194;28;20200;-87
2022/07/29 00:06:25;;;;;;;937.58;851.97;;;21.80;87.80;;;;;;5048945;28;20194;-89
2022/07/29 00:08:53;;;;;;;941.50;855.88;;;21.80;88.00;;;;;;5058895;28;20210;-88
2022/07/29 00:11:21;;;;;;;953.13;867.22;;;21.80;88.10;;;;;;5043612;28;20218;-88
2022/07/29 00:13:48;;;;;;;938.80;853.17;;;21.80;88.20;;;;;;5044952;28;20316;-85
2022/07/29 00:16:14;;;;;;;925.65;840.63;;;21.80;88.30;;;;;;5043812;28;20222;-88
2022/07/29 00:18:41;;;;;;;942.13;856.67;;;21.80;88.50;;;;;;5040852;28;20626;-85
2022/07/29 00:21:08;;;;;;;947.70;861.80;;;21.70;88.50;;;;;;5047141;28;20668;-86
2022/07/29 00:23:35;;;;;;;939.08;853.50;;;21.70;88.50;;;;;;5060783;28;20194;-86
2022/07/29 00:26:03;;;;;;;948.92;863.28;;;21.70;88.50;;;;;;5043572;28;20213;-87
2022/07/29 00:28:30;;;;;;;925.05;840.08;;;21.70;88.50;;;;;;5046911;28;20651;-88
2022/07/29 00:30:56;;;;;;;952.55;866.58;;;21.70;88.50;;;;;;5050653;28;20203;-86
2022/07/29 00:33:23;;;;;;;937.78;852.22;;;21.70;88.80;;;;;;5048593;28;20658;-89
2022/07/29 00:35:49;;;;;;;941.05;855.70;;;21.70;88.80;;;;;;5044587;28;20247;-86
2022/07/29 00:38:19;;;;;;;932.60;847.20;;;21.70;88.90;;;;;;5044473;28;20290;-88
2022/07/29 00:40:47;;;;;;;938.67;853.05;;;21.60;88.50;;;;;;5044749;28;20441;-88
2022/07/29 00:43:15;;;;;;;939.33;853.65;;;21.60;88.90;;;;;;5050155;28;20202;-88
2022/07/29 00:45:42;;;;;;;937.95;852.45;;;21.60;89.00;;;;;;5045105;28;20191;-88
2022/07/29 00:48:09;;;;;;;938.03;852.53;;;21.60;88.90;;;;;;5041906;28;20415;-88
2022/07/29 00:50:37;;;;;;;940.35;854.70;;;21.60;89.20;;;;;;5044216;28;20221;-88
2022/07/29 00:53:04;;;;;;;936.97;851.20;;;21.60;89.00;;;;;;5040429;28;20218;-87
2022/07/29 00:55:31;;;;;;;927.83;842.72;;;21.60;89.20;;;;;;5054667;28;20197;-88
2022/07/29 00:57:58;;;;;;;945.15;859.58;;;21.60;89.10;;;;;;5051168;28;20665;-89
2022/07/29 01:00:29;;;;;;;933.75;848.47;;;21.50;89.20;;;;;;5048163;28;20195;-87
2022/07/29 01:02:56;;;;;;;925.38;840.10;;;21.50;89.20;;;;;;5046549;28;20224;-89
2022/07/29 01:05:24;;;;;;;935.63;850.10;;;21.50;88.90;;;;;;5059405;28;20213;-86
2022/07/29 01:07:54;;;;;;;922.60;837.38;;;21.50;89.30;;;;;;5059860;28;20202;-87
2022/07/29 01:10:22;;;;;;;925.97;840.67;;;21.50;89.00;;;;;;5041171;28;20199;-87
2022/07/29 01:12:50;;;;;;;922.67;837.58;;;21.50;89.30;;;;;;5040205;28;20599;-88
2022/07/29 01:15:17;;;;;;;936.30;850.53;;;21.50;89.20;;;;;;5050694;28;20202;-90
2022/07/29 01:17:50;;;;;;;933.88;848.58;;;21.50;89.00;;;;;;5047154;28;20219;-87
2022/07/29 01:20:24;;;;;;;924.60;839.35;;;21.50;89.30;;;;;;5046007;28;20202;-87
2022/07/29 01:23:35;;;;;;;926.33;841.20;;;21.50;89.00;;;;;;5060527;28;20199;-89
2022/07/29 01:26:28;;;;;;;916.28;831.22;;;21.40;88.90;;;;;;5045154;28;20688;-89
2022/07/29 01:29:07;;;;;;;913.60;828.67;;;21.40;89.00;;;;;;5056009;28;20205;-90
2022/07/29 01:31:41;;;;;;;921.38;836.25;;;21.40;89.30;;;;;;5035673;28;20579;-89
2022/07/29 01:34:12;;;;;;;919.35;834.55;;;21.40;89.40;;;;;;5035846;28;20276;-89
2022/07/29 01:36:44;;;;;;;921.17;836.08;;;21.40;89.50;;;;;;5052904;28;20246;-90
2022/07/29 01:39:14;;;;;;;921.20;835.92;;;21.40;89.50;;;;;;5052883;28;20213;-89
2022/07/29 01:41:48;;;;;;;924.90;839.55;;;21.40;89.60;;;;;;5044761;28;20202;-89
2022/07/29 01:44:21;;;;;;;927.63;842.33;;;21.40;89.70;;;;;;5038163;28;20204;-90
2022/07/29 01:46:54;;;;;;;924.60;839.33;;;21.30;89.50;;;;;;5046124;28;20211;-89
2022/07/29 01:49:26;;;;;;;922.72;837.38;;;21.30;89.50;;;;;;5039761;28;20646;-87
2022/07/29 01:52:00;;;;;;;922.83;837.38;;;21.30;89.60;;;;;;5058926;28;20199;-90
2022/07/29 01:54:35;;;;;;;935.55;849.88;;;21.30;89.60;;;;;;5043109;28;20210;-87
2022/07/29 01:57:04;;;;;;;923.75;838.42;;;21.30;89.80;;;;;;5042985;28;20233;-87
2022/07/29 01:59:34;;;;;;;931.38;845.78;;;21.30;89.70;;;;;;5051150;28;20210;-88
2022/07/29 02:02:02;;;;;;;926.15;840.58;;;21.30;89.80;;;;;;5039083;28;20692;-86
2022/07/29 02:04:32;;;;;;;910.88;826.08;;;21.30;89.80;;;;;;5055255;28;20661;-87
2022/07/29 02:07:04;;;;;;;931.90;846.60;;;21.30;89.80;;;;;;5043449;28;20198;-87
2022/07/29 02:09:32;;;;;;;909.42;824.65;;;21.20;89.90;;;;;;5055757;28;20692;-89
2022/07/29 02:12:01;;;;;;;932.05;846.47;;;21.20;89.90;;;;;;5047584;28;20203;-91
2022/07/29 02:14:33;;;;;;;911.75;827.22;;;21.20;90.00;;;;;;5042996;28;20620;-90
2022/07/29 02:17:03;;;;;;;892.78;808.55;;;21.20;90.00;;;;;;5046168;28;20207;-85
2022/07/29 02:19:32;;;;;;;928.78;843.40;;;21.20;90.10;;;;;;5054534;28;20206;-86
2022/07/29 02:22:01;;;;;;;912.30;827.55;;;21.20;90.10;;;;;;5044887;28;20198;-86
2022/07/29 02:24:29;;;;;;;923.70;838.83;;;21.20;90.10;;;;;;5040299;28;20287;-88
2022/07/29 02:26:58;;;;;;;918.15;833.28;;;21.10;90.10;;;;;;5040104;28;20203;-88
2022/07/29 02:29:30;;;;;;;915.10;830.30;;;21.10;90.10;;;;;;5062742;28;20205;-90
2022/07/29 02:31:59;;;;;;;897.97;813.75;;;21.10;90.20;;;;;;5049770;28;20203;-90
2022/07/29 02:34:28;;;;;;;900.38;816.03;;;21.10;90.20;;;;;;5034687;28;20202;-87
2022/07/29 02:36:57;;;;;;;902.40;818.05;;;21.10;90.20;;;;;;5056220;28;20214;-85
2022/07/29 02:39:26;;;;;;;906.80;822.17;;;21.10;90.20;;;;;;5046973;28;20224;-86
2022/07/29 02:41:58;;;;;;;914.50;830.10;;;21.10;90.20;;;;;;5052064;28;20216;-87
2022/07/29 02:44:27;;;;;;;901.45;817.72;;;21.10;90.30;;;;;;5044143;28;20191;-88
2022/07/29 02:47:02;;;;;;;883.67;800.42;;;21.10;90.30;;;;;;5041782;28;20649;-89
2022/07/29 02:49:37;;;;;;;886.38;802.67;;;21.00;90.30;;;;;;5044125;28;20201;-85
2022/07/29 02:52:07;;;;;;;908.17;823.72;;;21.00;90.40;;;;;;5040139;28;20201;-86
2022/07/29 02:54:40;;;;;;;895.17;811.13;;;21.00;90.50;;;;;;5039738;28;20216;-86
2022/07/29 02:57:14;;;;;;;904.22;819.72;;;21.00;90.50;;;;;;5039770;28;20222;-85
2022/07/29 02:59:44;;;;;;;885.40;801.72;;;21.00;90.50;;;;;;5053446;28;20211;-86
2022/07/29 03:02:14;;;;;;;891.97;808.10;;;21.00;90.60;;;;;;5052264;28;20210;-86
2022/07/29 03:04:44;;;;;;;872.42;789.03;;;21.00;90.60;;;;;;5056912;28;20209;-85
2022/07/29 03:07:13;;;;;;;887.92;804.25;;;21.00;90.60;;;;;;5052277;28;20198;-85
2022/07/29 03:09:42;;;;;;;897.67;813.25;;;20.90;90.60;;;;;;5060176;28;20566;-85
2022/07/29 03:12:10;;;;;;;909.67;824.80;;;20.90;90.50;;;;;;5036092;28;20612;-85
2022/07/29 03:14:37;;;;;;;910.85;825.90;;;20.90;90.50;;;;;;5052184;28;20202;-85
2022/07/29 03:17:04;;;;;;;914.08;828.92;;;20.90;90.50;;;;;;5045164;28;20232;-85
2022/07/29 03:19:32;;;;;;;883.22;799.17;;;20.90;90.60;;;;;;5051698;28;20207;-85
2022/07/29 03:22:01;;;;;;;892.25;808.00;;;20.90;90.60;;;;;;5031312;28;20206;-86
2022/07/29 03:24:31;;;;;;;904.88;819.97;;;20.90;90.70;;;;;;5037295;28;20606;-85
2022/07/29 03:26:58;;;;;;;901.60;818.45;;;20.90;90.80;;;;;;5046250;28;20639;-88
2022/07/29 03:29:25;;;;;;;898.60;814.17;;;20.80;90.70;;;;;;5048542;28;20360;-86
2022/07/29 03:31:52;;;;;;;889.72;805.47;;;20.80;90.80;;;;;;5041618;28;20273;-85
2022/07/29 03:34:19;;;;;;;902.22;818.10;;;20.80;90.80;;;;;;5043349;28;20278;-85
2022/07/29 03:36:46;;;;;;;901.45;817.65;;;20.80;90.90;;;;;;5054994;28;20209;-86
2022/07/29 03:39:18;;;;;;;893.60;811.67;;;20.80;90.90;;;;;;5055477;28;20194;-86
2022/07/29 03:41:46;;;;;;;895.42;814.03;;;20.80;90.90;;;;;;5042361;28;20197;-86
2022/07/29 03:44:16;;;;;;;891.33;809.95;;;20.80;91.00;;;;;;5046586;28;20194;-87
2022/07/29 03:46:44;;;;;;;889.78;809.42;;;20.80;91.00;;;;;;5053848;28;20494;-86
2022/07/29 03:49:12;;;;;;;901.78;820.42;;;20.70;91.00;;;;;;5042584;28;20190;-86
2022/07/29 03:51:39;;;;;;;893.90;812.95;;;20.70;91.00;;;;;;5042200;28;20200;-86
2022/07/29 03:54:06;;;;;;;904.70;822.28;;;20.70;91.00;;;;;;5046599;28;20280;-86
2022/07/29 03:56:39;;;;;;;903.33;821.55;;;20.70;91.10;;;;;;5054051;28;20221;-85
2022/07/29 03:59:07;;;;;;;888.15;807.03;;;20.70;91.10;;;;;;5036397;28;20215;-85
2022/07/29 04:01:35;;;;;;;906.30;824.83;;;20.70;91.20;;;;;;5042749;28;20224;-85
2022/07/29 04:04:02;;;;;;;893.75;812.70;;;20.70;91.20;;;;;;5045896;28;20198;-89
2022/07/29 04:06:28;;;;;;;894.50;813.50;;;20.70;91.30;;;;;;5052716;28;20209;-84
2022/07/29 04:08:55;;;;;;;897.88;816.63;;;20.70;91.30;;;;;;5061239;28;20197;-84
2022/07/29 04:11:22;;;;;;;897.17;815.95;;;20.70;91.30;;;;;;5050367;28;20292;-85
2022/07/29 04:13:50;;;;;;;885.78;807.78;;;20.70;91.40;;;;;;5047267;28;20658;-86
2022/07/29 04:16:17;;;;;;;894.35;814.40;;;20.70;91.40;;;;;;5039786;28;20204;-85
2022/07/29 04:18:43;;;;;;;895.47;814.55;;;20.60;91.40;;;;;;5048247;28;20230;-85
2022/07/29 04:21:10;;;;;;;882.67;802.78;;;20.60;91.40;;;;;;5055859;28;20671;-85
2022/07/29 04:23:37;;;;;;;901.60;820.72;;;20.60;91.50;;;;;;5051557;28;20315;-86
2022/07/29 04:26:04;;;;;;;900.70;819.63;;;20.60;91.50;;;;;;5045383;28;20202;-86
2022/07/29 04:28:30;;;;;;;894.70;813.83;;;20.60;91.60;;;;;;5052074;28;20202;-86
2022/07/29 04:30:58;;;;;;;892.58;811.42;;;20.60;91.60;;;;;;5045230;28;20206;-86
2022/07/29 04:33:25;;;;;;;905.30;823.95;;;20.60;91.60;;;;;;5039779;28;20206;-86
2022/07/29 04:35:52;;;;;;;887.00;806.08;;;20.60;91.60;;;;;;5055206;28;20714;-87
2022/07/29 04:38:19;;;;;;;893.50;812.05;;;20.60;91.60;;;;;;5066604;28;20224;-85
2022/07/29 04:40:46;;;;;;;904.15;822.00;;;20.60;91.70;;;;;;5046087;28;20213;-85
2022/07/29 04:43:12;;;;;;;894.60;813.72;;;20.60;91.70;;;;;;5039523;28;20565;-85
2022/07/29 04:45:39;;;;;;;879.97;799.67;;;20.50;91.70;;;;;;5045170;28;20206;-86
2022/07/29 04:48:07;;;;;;;879.38;799.45;;;20.50;91.80;;;;;;5053370;28;20208;-86
2022/07/29 04:50:34;;;;;;;888.47;808.20;;;20.50;91.80;;;;;;5061251;28;20202;-86
2022/07/29 04:53:01;;;;;;;880.72;801.42;;;20.50;91.90;;;;;;5043631;28;20210;-85
2022/07/29 04:55:28;;;;;;;881.63;801.97;;;20.50;91.90;;;;;;5044573;28;20201;-87
2022/07/29 04:57:54;;;;;;;874.75;794.30;;;20.50;92.00;;;;;;5041144;28;20218;-87
2022/07/29 05:00:22;;;;;;;879.47;798.53;;;20.50;92.00;;;;;;5042187;28;20210;-88
2022/07/29 05:02:49;;;;;;;905.28;823.63;;;20.50;92.10;;;;;;5042105;28;20280;-90
2022/07/29 05:05:17;;;;;;;893.35;812.13;;;20.50;92.10;;;;;;5037344;28;20218;-89
2022/07/29 05:07:44;;;;;;;885.25;804.15;;;20.50;92.10;;;;;;5054110;28;20200;-91
2022/07/29 05:10:11;;;;;;;893.17;811.63;;;20.50;92.20;;;;;;5064443;28;20208;-88
2022/07/29 05:12:38;;;;;;;897.05;815.70;;;20.50;92.20;;;;;;5039988;28;20690;-87
2022/07/29 05:15:06;;;;;;;889.28;808.35;;;20.50;92.20;;;;;;5041449;28;20199;-87
2022/07/29 05:17:33;;;;;;;890.17;809.17;;;20.50;92.20;;;;;;5048133;28;20558;-89
2022/07/29 05:20:00;;;;;;;895.45;814.05;;;20.50;92.30;;;;;;5051324;28;20715;-92
2022/07/29 05:22:28;;;;;;;905.78;824.08;;;20.50;92.40;;;;;;5049000;28;20203;-88
2022/07/29 05:24:55;;;;;;;894.15;812.55;;;20.50;92.40;;;;;;5042663;28;20705;-88
2022/07/29 05:27:21;;;;;;;889.67;808.28;;;20.50;92.40;;;;;;5052712;28;20201;-90
2022/07/29 05:29:48;;;;;;;876.17;795.15;;;20.50;92.50;;;;;;5047745;28;20206;-87
2022/07/29 05:32:15;;;;;;;901.85;819.83;;;20.50;92.50;;;;;;5043015;28;20209;-89
2022/07/29 05:34:42;;;;;;;882.65;801.58;;;20.50;92.50;;;;;;5045715;28;20211;-87
2022/07/29 05:37:09;;;;;;;884.28;803.05;;;20.50;92.60;;;;;;5044249;28;20225;-88
2022/07/29 05:39:37;;;;;;;897.65;815.95;;;20.50;92.60;;;;;;5044561;28;20222;-86
2022/07/29 05:42:04;;;;;;;884.08;802.67;;;20.50;92.60;;;;;;5045870;28;20198;-93
2022/07/29 05:44:30;;;;;;;878.55;797.15;;;20.50;92.60;;;;;;5062295;28;20589;-90
2022/07/29 05:46:57;;;;;;;899.38;817.38;;;20.50;92.70;;;;;;5048889;28;20204;-88
2022/07/29 05:49:24;;;;;;;896.58;814.65;;;20.50;92.70;;;;;;5045639;28;20216;-92
2022/07/29 05:51:51;;;;;;;892.20;810.72;;;20.50;92.70;;;;;;5041701;28;20210;-87
2022/07/29 05:54:17;;;;;;;881.28;799.75;;;20.60;92.70;;;;;;5043663;28;20199;-90
2022/07/29 05:56:45;;;;;;;880.85;799.22;;;20.60;92.70;;;;;;5045132;28;20248;-85
2022/07/29 05:59:12;;;;;;;899.38;817.08;;;20.60;92.80;;;;;;5043889;28;20589;-89
2022/07/29 06:01:39;;;;;;;872.60;790.97;;;20.60;92.70;;;;;;5043669;28;20217;-87
2022/07/29 06:04:06;;;;;;;898.08;815.20;;;20.60;92.70;;;;;;5049451;28;20211;-87
2022/07/29 06:06:33;;;;;;;892.28;810.00;;;20.60;92.90;;;;;;5051429;28;20208;-87
2022/07/29 06:09:00;;;;;;;905.95;823.38;;;20.50;92.90;;;;;;5053113;28;20643;-87
2022/07/29 06:11:26;;;;;;;880.90;799.15;;;20.50;93.00;;;;;;5043465;28;20203;-88
2022/07/29 06:13:54;;;;;;;893.90;811.88;;;20.50;93.00;;;;;;5048039;28;20566;-91
2022/07/29 06:16:21;;;;;;;893.05;809.80;;;20.50;93.00;;;;;;5049111;28;20206;-88
2022/07/29 06:18:48;;;;;;;878.13;796.28;;;20.50;93.10;;;;;;5048205;28;20225;-89
2022/07/29 06:21:15;;;;;;;889.13;806.80;;;20.50;93.10;;;;;;5046727;28;20197;-86
2022/07/29 06:23:42;;;;;;;878.67;796.97;;;20.50;93.20;;;;;;5047480;28;20206;-86
2022/07/29 06:26:08;;;;;;;885.75;804.08;;;20.50;93.20;;;;;;5047142;28;20193;-86
2022/07/29 06:28:35;;;;;;;882.17;800.47;;;20.50;93.30;;;;;;5045196;28;20198;-85
2022/07/29 06:31:03;;;;;;;877.80;796.25;;;20.50;93.30;;;;;;5039611;28;20208;-86
2022/07/29 06:33:30;;;;;;;879.90;798.28;;;20.50;93.30;;;;;;5039693;28;20205;-86
2022/07/29 06:35:57;;;;;;;895.50;813.47;;;20.50;93.30;;;;;;5039403;28;20848;-84
2022/07/29 06:38:24;;;;;;;885.15;803.55;;;20.50;93.30;;;;;;5045251;28;20228;-85
2022/07/29 06:41:03;;;;;;;887.30;805.65;;;20.60;93.30;;;;;;5039342;28;20214;-85
2022/07/29 06:43:33;;;;;;;895.72;814.05;;;20.60;93.30;;;;;;5039061;28;20294;-86
2022/07/29 06:46:01;;;;;;;875.88;795.17;;;20.60;93.20;;;;;;5048491;28;20207;-86
2022/07/29 06:48:29;;;;;;;891.70;809.60;;;20.70;93.30;;;;;;5045425;28;20200;-85
2022/07/29 06:50:56;;;;;;;893.53;811.88;;;20.80;93.20;;;;;;5041432;28;20265;-85
2022/07/29 06:53:24;;;;;;;908.22;826.08;;;20.90;93.00;;;;;;5049672;28;20203;-87
2022/07/29 06:55:50;;;;;;;915.60;833.10;;;21.00;92.70;;;;;;5045135;28;20616;-87
2022/07/29 06:58:19;;;;;;;909.80;827.38;;;21.10;92.50;;;;;;5034183;28;20223;-85
2022/07/29 07:00:47;;;;;;;909.50;826.67;;;21.20;92.40;;;;;;5047387;28;20658;-84
2022/07/29 07:03:17;;;;;;;904.58;822.10;;;21.20;92.40;;;;;;5046668;28;20206;-86
2022/07/29 07:05:46;;;;;;;908.83;826.30;;;21.20;92.30;;;;;;5048699;28;20211;-89
2022/07/29 07:08:14;;;;;;;925.17;841.85;;;21.20;92.30;;;;;;5054435;28;20195;-89
2022/07/29 07:10:40;;;;;;;917.10;834.35;;;21.20;92.30;;;;;;5036130;28;20195;-89
2022/07/29 07:13:07;;;;;;;924.83;841.75;;;21.20;92.30;;;;;;5039611;28;20191;-88
2022/07/29 07:15:34;;;;;;;917.90;835.15;;;21.20;92.30;;;;;;5034989;28;20202;-88
2022/07/29 07:18:01;;;;;;;918.10;835.20;;;21.20;92.30;;;;;;5057149;28;20209;-85
2022/07/29 07:20:51;;;;;;;898.28;815.88;;;21.20;92.30;;;;;;5042064;28;20354;-87
2022/07/29 07:23:17;;;;;;;910.92;828.10;;;21.20;92.30;;;;;;5053183;28;20198;-87
2022/07/29 07:25:44;;;;;;;919.35;836.72;;;21.20;92.40;;;;;;5041253;28;20198;-82
2022/07/29 07:28:11;;;;;;;909.08;825.42;;;21.20;92.40;;;;;;5054231;28;20253;-86
2022/07/29 07:30:38;;;;;;;920.38;837.20;;;21.20;92.40;;;;;;5047835;28;20569;-87
2022/07/29 07:33:05;;;;;;;908.08;825.25;;;21.20;92.40;;;;;;5054169;28;20190;-85
2022/07/29 07:35:32;;;;;;;916.30;833.20;;;21.20;92.40;;;;;;5056244;28;22439;-86
2022/07/29 07:38:00;;;;;;;914.25;830.72;;;21.20;92.40;;;;;;5059251;28;20198;-84
2022/07/29 07:40:27;;;;;;;927.92;843.67;;;21.30;92.30;;;;;;5057938;28;20198;-85
2022/07/29 07:42:54;;;;;;;921.65;837.53;;;21.40;92.20;;;;;;5053712;28;20195;-86
2022/07/29 07:45:20;;;;;;;930.35;845.80;;;21.50;92.10;;;;;;5073972;28;20202;-86
2022/07/29 07:47:47;;;;;;;931.20;846.30;;;21.50;92.00;;;;;;5047493;28;20195;-82
2022/07/29 07:50:14;;;;;;;944.75;859.55;;;21.60;91.90;;;;;;5058419;28;20611;-85
2022/07/29 07:52:48;;;;;;;943.92;858.85;;;21.70;91.80;;;;;;5052618;28;20202;-85
2022/07/29 07:55:17;;;;;;;962.88;876.95;;;21.90;91.40;;;;;;5054453;28;20194;-82
2022/07/29 07:57:44;;;;;;;972.40;886.33;;;22.10;91.00;;;;;;5051206;28;20195;-86
2022/07/29 08:00:12;;;;;;;959.92;874.17;;;22.30;90.70;;;;;;5063450;28;20214;-88
2022/07/29 08:02:39;;;;;;;981.42;895.45;;;22.60;90.20;;;;;;5063288;28;20222;-87
2022/07/29 08:05:08;;;;;;;993.13;906.35;;;22.70;89.80;;;;;;5047163;28;20662;-90
2022/07/29 08:07:35;;;;;;;978.47;892.45;;;22.80;89.20;;;;;;5060542;28;20204;-93
2022/07/29 08:10:02;;;;;;;1003.97;917.03;;;22.90;89.10;;;;;;5050723;28;20187;-91
2022/07/29 08:12:30;;;;;;;980.97;894.85;;;22.80;88.80;;;;;;5046638;28;20214;-91
2022/07/29 08:14:57;;;;;;;989.13;902.55;;;22.80;88.80;;;;;;5059064;28;20199;-90
2022/07/29 08:17:24;;;;;;;986.67;900.47;;;22.70;88.60;;;;;;5045225;28;20205;-92
2022/07/29 08:19:50;;;;;;;979.83;894.08;;;22.70;89.10;;;;;;5055672;28;20218;-90
2022/07/29 08:22:17;;;;;;;994.78;908.03;;;22.70;89.20;;;;;;5062953;28;20194;-88
2022/07/29 08:24:46;;;;;;;985.30;899.03;;;22.80;88.20;;;;;;5050252;28;20243;-90
2022/07/29 08:27:13;;;;;;;1004.20;917.28;;;22.90;88.30;;;;;;5055566;28;20199;-91
2022/07/29 08:29:41;;;;;;;988.20;901.78;;;22.90;88.10;;;;;;5043926;28;20282;-91
2022/07/29 08:32:08;;;;;;;983.63;897.50;;;22.90;88.20;;;;;;5051748;28;20194;-90
2022/07/29 08:34:35;;;;;;;1003.13;916.33;;;22.90;88.20;;;;;;5052496;28;20209;-90
2022/07/29 08:37:02;;;;;;;981.42;895.03;;;22.90;88.40;;;;;;5058254;28;20199;-88
2022/07/29 08:39:28;;;;;;;988.85;902.22;;;22.90;88.40;;;;;;5044933;28;20222;-87
2022/07/29 08:41:55;;;;;;;1008.13;920.65;;;23.00;88.10;;;;;;5048924;28;20619;-88
2022/07/29 08:44:22;;;;;;;1006.55;919.22;;;23.20;87.60;;;;;;5051852;28;20199;-90
2022/07/29 08:46:51;;;;;;;1007.50;921.13;;;23.30;87.20;;;;;;5055640;28;20198;-91
2022/07/29 08:49:18;;;;;;;1000.17;914.10;;;23.40;86.90;;;;;;5043412;28;20198;-89
2022/07/29 08:51:45;;;;;;;1004.53;918.20;;;23.40;86.60;;;;;;5046175;28;20663;-86
2022/07/29 08:54:14;;;;;;;1014.22;927.83;;;23.40;86.50;;;;;;5043514;28;20203;-85
2022/07/29 08:56:41;;;;;;;1014.20;927.63;;;23.30;86.50;;;;;;5044216;28;20681;-90
2022/07/29 08:59:09;;;;;;;1009.92;923.40;;;23.30;86.50;;;;;;5041133;28;20685;-87
2022/07/29 09:01:38;;;;;;;1003.08;916.20;;;23.40;86.60;;;;;;5049799;28;20313;-89
2022/07/29 09:04:11;;;;;;;1007.42;920.55;;;23.40;86.70;;;;;;5043184;28;20654;-84
2022/07/29 09:06:40;;;;;;;1014.90;927.47;;;23.50;86.40;;;;;;5049319;28;20195;-90
2022/07/29 09:09:08;;;;;;;1023.08;935.22;;;23.50;86.10;;;;;;5052955;28;20202;-85
2022/07/29 09:11:35;;;;;;;1011.17;923.58;;;23.60;85.70;;;;;;5055852;28;20201;-90
2022/07/29 09:14:02;;;;;;;1019.22;931.30;;;23.60;85.80;;;;;;5050300;28;20202;-88
2022/07/29 09:16:45;;;;;;;1012.25;924.42;;;23.50;86.80;;;;;;5040873;28;20635;-89
2022/07/29 09:19:23;;;;;;;1009.42;921.90;;;23.50;86.10;;;;;;5044614;28;20234;-87
2022/07/29 09:21:59;;;;;;;1005.65;918.03;;;23.50;86.40;;;;;;5051223;28;20222;-88
2022/07/29 09:24:27;;;;;;;1008.53;921.05;;;23.40;86.40;;;;;;5052202;28;20202;-89
2022/07/29 09:26:54;;;;;;;1001.03;913.95;;;23.40;86.60;;;;;;5037204;28;20761;-88
2022/07/29 09:29:23;;;;;;;1012.67;924.90;;;23.40;86.70;;;;;;5045267;28;20206;-87
2022/07/29 09:31:53;;;;;;;1001.60;914.28;;;23.30;87.00;;;;;;5046795;28;20211;-88
2022/07/29 09:34:25;;;;;;;1000.40;913.10;;;23.30;87.20;;;;;;5058312;28;20199;-91
2022/07/29 09:36:56;;;;;;;997.53;910.40;;;23.30;87.20;;;;;;5052253;28;20195;-85
2022/07/29 09:39:30;;;;;;;1003.83;916.15;;;23.30;87.50;;;;;;5041876;28;20708;-89
2022/07/29 09:42:01;;;;;;;1007.45;919.88;;;23.30;87.70;;;;;;5056760;28;20302;-88
2022/07/29 09:44:41;;;;;;;1009.60;922.00;;;23.30;87.80;;;;;;5049682;28;20250;-89
2022/07/29 09:47:08;;;;;;;1013.65;926.17;;;23.30;87.60;;;;;;5048302;28;20197;-87
2022/07/29 09:49:51;;;;;;;1004.42;917.22;;;23.30;87.70;;;;;;5046165;28;20188;-90
2022/07/29 09:52:18;;;;;;;1004.58;917.13;;;23.30;87.70;;;;;;5047854;28;20538;-88
2022/07/29 09:54:45;;;;;;;1005.67;918.20;;;23.40;88.10;;;;;;5056353;28;20879;-90
2022/07/29 09:57:26;;;;;;;1015.67;927.90;;;23.40;87.80;;;;;;5044571;28;20195;-89
2022/07/29 10:00:00;;;;;;;997.00;910.13;;;23.40;87.70;;;;;;5055400;28;20222;-86
2022/07/29 10:02:31;;;;;;;1008.80;921.70;;;23.40;87.70;;;;;;5053281;28;20760;-87
2022/07/29 10:05:00;;;;;;;1000.97;913.95;;;23.40;87.60;;;;;;5049573;28;20206;-91
2022/07/29 10:07:43;;;;;;;997.10;910.35;;;23.40;87.80;;;;;;5058244;28;20191;-87
2022/07/29 10:10:10;;;;;;;1001.47;914.40;;;23.40;87.90;;;;;;5047141;28;20234;-91
2022/07/29 10:12:50;;;;;;;991.53;904.78;;;23.30;87.90;;;;;;5041626;28;20195;-87
2022/07/29 10:15:17;;;;;;;1007.22;919.85;;;23.40;87.90;;;;;;5033088;28;20329;-86
2022/07/29 10:17:45;;;;;;;1006.13;918.85;;;23.40;87.90;;;;;;5040371;28;20211;-88
2022/07/29 10:20:13;;;;;;;1002.78;915.72;;;23.40;88.10;;;;;;5045107;28;20245;-88
2022/07/29 10:22:40;;;;;;;1011.30;923.78;;;23.40;88.10;;;;;;5045755;28;20219;-87
2022/07/29 10:25:09;;;;;;;995.05;908.25;;;23.40;88.20;;;;;;5037903;28;20200;-85
2022/07/29 10:27:36;;;;;;;997.72;910.88;;;23.40;88.20;;;;;;5049646;28;20203;-86
2022/07/29 10:30:04;;;;;;;996.13;909.00;;;23.40;88.10;;;;;;5046713;28;20644;-89
2022/07/29 10:32:52;;;;;;;989.13;902.63;;;23.40;88.20;;;;;;5045324;28;20253;-87
2022/07/29 10:35:30;;;;;;;993.03;906.35;;;23.40;88.40;;;;;;5038105;28;20281;-87
2022/07/29 10:38:31;;;;;;;1000.15;913.45;;;23.40;88.80;;;;;;5044713;28;20205;-88
2022/07/29 10:43:52;;;;;;;970.50;885.15;;;23.40;89.40;;;;;;5042000;28;20280;-88
2022/07/29 10:46:20;;;;;;;985.13;898.70;;;23.30;89.50;;;;;;5047324;28;20198;-88
2022/07/29 10:49:06;;;;;;;1001.75;914.50;;;23.30;89.60;;;;;;5054492;28;20198;-88
2022/07/29 10:51:59;;;;;;;989.78;902.88;;;23.40;90.00;;;;;;5043093;28;20651;-89
2022/07/29 10:54:41;;;;;;;996.80;909.72;;;23.40;90.00;;;;;;5042807;28;20195;-86
2022/07/29 10:57:20;;;;;;;998.63;911.63;;;23.40;90.10;;;;;;5035470;28;20294;-85
2022/07/29 10:59:47;;;;;;;989.03;902.70;;;23.40;90.00;;;;;;5036323;28;20223;-84
2022/07/29 11:02:43;;;;;;;975.60;889.67;;;23.30;90.40;;;;;;5057076;28;20222;-87
2022/07/29 11:05:11;;;;;;;974.78;888.58;;;23.30;90.10;;;;;;5052960;28;20199;-86
2022/07/29 11:08:00;;;;;;;989.40;902.55;;;23.30;90.30;;;;;;5035738;28;20203;-91
2022/07/29 11:10:28;;;;;;;983.42;896.90;;;23.30;90.30;;;;;;5041875;28;20194;-85
2022/07/29 11:12:55;;;;;;;995.53;908.67;;;23.20;90.40;;;;;;5045220;28;20200;-88
2022/07/29 11:15:23;;;;;;;990.72;904.10;;;23.20;90.50;;;;;;5062496;28;20201;-90
2022/07/29 11:18:09;;;;;;;999.80;912.65;;;23.20;90.60;;;;;;5042669;28;20702;-87
2022/07/29 11:20:40;;;;;;;980.63;894.13;;;23.10;90.70;;;;;;5050838;28;20215;-91
2022/07/29 11:23:27;;;;;;;986.50;899.75;;;23.10;90.80;;;;;;5033553;28;20202;-89
2022/07/29 11:26:19;;;;;;;976.88;890.53;;;23.10;90.80;;;;;;5043716;28;20728;-87
2022/07/29 11:29:04;;;;;;;966.72;880.53;;;23.10;91.00;;;;;;5044374;28;20210;-86
2022/07/29 11:31:39;;;;;;;982.33;895.90;;;23.10;91.10;;;;;;5055992;28;20737;-88
2022/07/29 11:34:20;;;;;;;980.00;893.53;;;23.00;91.10;;;;;;5049058;28;20226;-87
2022/07/29 11:37:18;;;;;;;991.17;904.28;;;23.00;91.30;;;;;;5039734;28;20196;-89
2022/07/29 11:39:47;;;;;;;973.78;887.78;;;23.00;91.50;;;;;;5047577;28;20207;-89
2022/07/29 11:42:45;;;;;;;983.95;897.78;;;23.00;91.80;;;;;;5042283;28;20215;-90
2022/07/29 11:45:17;;;;;;;972.30;886.25;;;23.00;92.10;;;;;;5032419;28;20539;-88
2022/07/29 11:47:50;;;;;;;980.63;894.28;;;23.00;92.20;;;;;;5050543;28;20288;-89
2022/07/29 11:50:26;;;;;;;985.13;898.53;;;22.90;92.30;;;;;;5034522;28;20202;-90
2022/07/29 11:52:53;;;;;;;998.05;910.83;;;22.90;92.40;;;;;;5044221;28;20200;-89
2022/07/29 11:55:23;;;;;;;996.72;909.80;;;22.90;92.50;;;;;;5051231;28;20654;-90
2022/07/29 11:57:53;;;;;;;981.30;896.13;;;22.90;92.60;;;;;;5032909;28;20249;-89
2022/07/29 12:00:29;;;;;;;971.30;886.65;;;22.90;92.70;;;;;;5033471;28;20211;-89
2022/07/29 12:02:57;;;;;;;970.13;885.10;;;22.90;92.90;;;;;;5039234;28;20297;-90
2022/07/29 12:05:36;;;;;;;975.97;890.67;;;22.90;93.00;;;;;;5056258;28;20209;-89
2022/07/29 12:08:08;;;;;;;960.00;874.42;;;22.90;93.10;;;;;;5036982;28;20199;-90
2022/07/29 12:10:35;;;;;;;975.30;889.25;;;22.90;93.30;;;;;;5050580;28;20184;-89
2022/07/29 12:13:03;;;;;;;977.85;893.78;;;22.80;93.20;;;;;;5037440;28;20204;-90
2022/07/29 12:15:30;;;;;;;980.92;897.28;;;22.80;93.70;;;;;;5043753;28;20187;-86
2022/07/29 12:17:57;;;;;;;984.78;900.97;;;22.80;93.40;;;;;;5041375;28;20208;-87
2022/07/29 12:20:26;;;;;;;982.45;898.70;;;22.80;93.30;;;;;;5037042;28;20678;-91
2022/07/29 12:22:54;;;;;;;983.05;897.25;;;22.80;93.30;;;;;;5047302;28;20290;-90